createdAt,value
2018-09-25T00:00:32.567Z,92.10
2018-09-25T00:03:07.695Z,92.00
2018-09-25T00:05:42.893Z,92.00
2018-09-25T00:08:17.979Z,92.10
2018-09-25T00:10:53.039Z,91.90
2018-09-25T00:13:28.039Z,92.00
2018-09-25T00:16:03.136Z,92.30
2018-09-25T00:18:38.151Z,92.00
2018-09-25T00:21:13.220Z,92.20
2018-09-25T00:23:48.210Z,92.30
2018-09-25T00:26:23.302Z,92.20
2018-09-25T00:28:58.287Z,92.40
2018-09-25T00:31:33.372Z,92.10
2018-09-25T00:34:08.355Z,92.50
2018-09-25T00:36:43.743Z,92.10
2018-09-25T00:39:18.678Z,92.10
2018-09-25T00:41:53.681Z,92.50
2018-09-25T00:44:28.692Z,92.30
2018-09-25T00:47:03.708Z,92.40
2018-09-25T00:49:38.856Z,92.10
2018-09-25T00:52:13.775Z,91.80
2018-09-25T00:54:48.733Z,91.50
2018-09-25T00:57:23.703Z,91.50
2018-09-25T00:59:58.774Z,91.50
2018-09-25T01:02:33.716Z,91.60
2018-09-25T01:05:08.726Z,91.30
2018-09-25T01:07:43.854Z,91.90
2018-09-25T01:10:18.987Z,91.70
2018-09-25T01:12:53.963Z,91.30
2018-09-25T01:15:29.095Z,91.50
2018-09-25T01:18:04.076Z,91.40
2018-09-25T01:20:39.185Z,91.60
2018-09-25T01:23:14.252Z,91.90
2018-09-25T01:25:49.530Z,91.90
2018-09-25T01:28:24.561Z,91.60
2018-09-25T01:30:59.472Z,91.90
2018-09-25T01:33:34.495Z,91.40
2018-09-25T01:36:09.503Z,92.00
2018-09-25T01:38:44.456Z,93.00
2018-09-25T01:41:19.490Z,92.20
2018-09-25T01:43:54.358Z,92.00
2018-09-25T01:46:29.318Z,91.40
2018-09-25T01:49:04.338Z,91.60
2018-09-25T01:51:39.355Z,91.80
2018-09-25T01:54:14.401Z,91.80
2018-09-25T01:56:49.491Z,91.80
2018-09-25T01:59:24.435Z,91.60
2018-09-25T02:01:59.375Z,91.70
2018-09-25T02:04:34.559Z,91.60
2018-09-25T02:07:09.574Z,92.90
2018-09-25T02:09:44.481Z,92.50
2018-09-25T02:12:20.160Z,92.60
2018-09-25T02:14:55.288Z,92.50
2018-09-25T02:17:30.511Z,92.40
2018-09-25T02:20:05.553Z,93.00
2018-09-25T02:22:40.740Z,92.60
2018-09-25T02:25:15.731Z,92.20
2018-09-25T02:27:50.695Z,92.60
2018-09-25T02:30:25.669Z,92.70
2018-09-25T02:33:00.829Z,92.60
2018-09-25T02:35:35.856Z,92.70
2018-09-25T02:38:10.987Z,92.80
2018-09-25T02:40:45.900Z,92.50
2018-09-25T02:43:20.871Z,92.90
2018-09-25T02:45:55.913Z,92.40
2018-09-25T02:48:30.931Z,92.50
2018-09-25T02:51:05.887Z,92.00
2018-09-25T02:53:40.994Z,92.30
2018-09-25T02:56:17.463Z,92.60
2018-09-25T02:58:52.682Z,92.80
2018-09-25T03:01:28.006Z,92.30
2018-09-25T03:04:03.035Z,92.20
2018-09-25T03:06:37.986Z,92.90
2018-09-25T03:09:13.912Z,92.50
2018-09-25T03:11:49.004Z,92.40
2018-09-25T03:14:23.873Z,92.30
2018-09-25T03:16:59.030Z,92.90
2018-09-25T03:19:33.987Z,92.50
2018-09-25T03:22:08.951Z,92.90
2018-09-25T03:24:43.939Z,92.60
2018-09-25T03:27:19.003Z,92.00
2018-09-25T03:29:54.003Z,92.20
2018-09-25T03:32:29.088Z,92.40
2018-09-25T03:35:04.012Z,92.30
2018-09-25T03:37:38.947Z,92.70
2018-09-25T03:40:13.771Z,92.50
2018-09-25T03:42:48.661Z,92.00
2018-09-25T03:45:23.628Z,92.30
2018-09-25T03:47:58.691Z,92.40
2018-09-25T03:50:33.616Z,91.90
2018-09-25T03:53:08.654Z,92.50
2018-09-25T03:55:43.914Z,92.20
2018-09-25T03:58:18.830Z,92.50
2018-09-25T04:00:53.800Z,92.00
2018-09-25T04:03:28.910Z,92.30
2018-09-25T04:06:03.939Z,91.60
2018-09-25T04:08:39.007Z,92.10
2018-09-25T04:11:14.078Z,91.30
2018-09-25T04:13:49.113Z,92.00
2018-09-25T04:16:24.163Z,91.60
2018-09-25T04:18:59.199Z,91.90
2018-09-25T04:21:34.240Z,92.30
2018-09-25T04:24:09.230Z,92.40
2018-09-25T04:26:44.287Z,92.30
2018-09-25T04:29:19.416Z,92.90
2018-09-25T04:31:54.363Z,91.70
2018-09-25T04:34:29.475Z,91.80
2018-09-25T04:37:04.466Z,92.40
2018-09-25T04:39:39.686Z,92.50
2018-09-25T04:42:14.651Z,92.10
2018-09-25T04:44:50.508Z,92.50
2018-09-25T04:47:25.954Z,92.20
2018-09-25T04:50:01.099Z,92.50
2018-09-25T04:52:36.195Z,92.40
2018-09-25T04:55:11.457Z,92.60
2018-09-25T04:57:46.423Z,92.20
2018-09-25T05:00:21.543Z,92.70
2018-09-25T05:02:56.463Z,92.30
2018-09-25T05:05:31.527Z,92.70
2018-09-25T05:08:06.575Z,92.50
2018-09-25T05:10:41.585Z,92.50
2018-09-25T05:13:16.507Z,92.00
2018-09-25T05:15:51.583Z,92.40
2018-09-25T05:18:26.602Z,92.60
2018-09-25T05:21:01.748Z,92.60
2018-09-25T05:23:36.846Z,92.40
2018-09-25T05:26:11.982Z,92.30
2018-09-25T05:28:46.970Z,92.40
2018-09-25T05:31:22.223Z,92.00
2018-09-25T05:33:57.407Z,92.10
2018-09-25T05:36:32.528Z,92.60
2018-09-25T05:39:07.611Z,92.00
2018-09-25T05:41:42.519Z,92.30
2018-09-25T05:44:17.562Z,91.90
2018-09-25T05:46:52.401Z,92.40
2018-09-25T05:49:27.339Z,91.90
2018-09-25T05:52:02.351Z,91.90
2018-09-25T05:54:37.339Z,92.10
2018-09-25T05:57:12.567Z,92.50
2018-09-25T05:59:47.475Z,93.20
2018-09-25T06:02:22.579Z,92.30
2018-09-25T06:04:57.790Z,93.10
2018-09-25T06:07:33.039Z,92.50
2018-09-25T06:10:07.987Z,92.70
2018-09-25T06:12:43.019Z,93.10
2018-09-25T06:15:18.378Z,93.10
2018-09-25T06:17:53.452Z,92.80
2018-09-25T06:20:28.863Z,91.50
2018-09-25T06:23:03.845Z,91.50
2018-09-25T06:25:38.919Z,91.50
2018-09-25T06:28:14.291Z,91.20
2018-09-25T06:30:49.527Z,91.30
2018-09-25T06:33:24.631Z,91.10
2018-09-25T06:35:59.616Z,91.50
2018-09-25T06:38:34.703Z,90.90
2018-09-25T06:41:09.767Z,90.90
2018-09-25T06:43:44.763Z,91.00
2018-09-25T06:46:19.809Z,91.20
2018-09-25T06:48:55.019Z,91.50
2018-09-25T06:51:29.987Z,91.10
2018-09-25T06:54:04.890Z,91.20
2018-09-25T06:56:39.927Z,90.90
2018-09-25T06:59:14.862Z,90.50
2018-09-25T07:01:49.783Z,90.30
2018-09-25T07:04:25.055Z,90.80
2018-09-25T07:06:59.995Z,91.30
2018-09-25T07:09:35.081Z,91.70
2018-09-25T07:12:10.083Z,91.70
2018-09-25T07:14:45.019Z,91.70
2018-09-25T07:17:19.906Z,91.50
2018-09-25T07:19:54.827Z,91.70
2018-09-25T07:22:29.841Z,91.80
2018-09-25T07:25:04.783Z,91.60
2018-09-25T07:27:39.981Z,91.60
2018-09-25T07:30:14.920Z,91.50
2018-09-25T07:32:50.359Z,91.20
2018-09-25T07:35:25.278Z,90.60
2018-09-25T07:38:00.326Z,90.70
2018-09-25T07:40:35.263Z,90.50
2018-09-25T07:43:10.202Z,90.50
2018-09-25T07:45:45.298Z,90.90
2018-09-25T07:48:20.312Z,90.60
2018-09-25T07:50:55.457Z,90.00
2018-09-25T07:53:30.511Z,89.30
2018-09-25T07:56:05.517Z,87.50
2018-09-25T07:58:40.623Z,87.00
2018-09-25T08:01:15.556Z,84.70
2018-09-25T08:03:50.535Z,83.20
2018-09-25T08:06:25.559Z,84.40
2018-09-25T08:09:00.549Z,81.50
2018-09-25T08:11:35.776Z,82.10
2018-09-25T08:14:10.740Z,81.00
2018-09-25T08:16:45.822Z,82.30
2018-09-25T08:19:20.863Z,83.50
2018-09-25T08:21:55.859Z,82.30
2018-09-25T08:24:30.895Z,80.00
2018-09-25T08:27:06.021Z,80.00
2018-09-25T08:29:41.020Z,79.30
2018-09-25T08:32:16.042Z,78.90
2018-09-25T08:34:51.266Z,75.20
2018-09-25T08:37:26.411Z,76.40
2018-09-25T08:40:01.383Z,73.90
2018-09-25T08:42:36.443Z,75.50
2018-09-25T08:45:17.168Z,75.20
2018-09-25T08:47:52.203Z,74.40
2018-09-25T08:50:27.231Z,74.70
2018-09-25T08:53:02.303Z,71.90
2018-09-25T08:55:37.298Z,72.30
2018-09-25T08:58:12.077Z,72.70
2018-09-25T09:00:47.507Z,73.30
2018-09-25T09:03:22.704Z,71.40
2018-09-25T09:05:57.743Z,73.00
2018-09-25T09:08:32.736Z,72.50
2018-09-25T09:11:07.683Z,73.80
2018-09-25T09:13:42.666Z,71.30
2018-09-25T09:16:17.848Z,70.50
2018-09-25T09:18:52.776Z,70.80
2018-09-25T09:21:27.892Z,70.80
2018-09-25T09:24:02.911Z,70.70
2018-09-25T09:26:37.841Z,71.50
2018-09-25T09:29:12.831Z,73.20
2018-09-25T09:31:47.918Z,71.20
2018-09-25T09:34:22.956Z,71.00
2018-09-25T09:36:58.164Z,68.60
2018-09-25T09:39:33.307Z,67.90
2018-09-25T09:42:08.284Z,68.90
2018-09-25T09:44:43.478Z,68.70
2018-09-25T09:47:18.570Z,68.00
2018-09-25T09:49:53.583Z,66.80
2018-09-25T09:52:28.584Z,67.40
2018-09-25T09:55:03.616Z,68.60
2018-09-25T09:57:38.640Z,66.10
2018-09-25T10:00:13.607Z,68.50
2018-09-25T10:02:48.591Z,67.50
2018-09-25T10:05:23.552Z,67.30
2018-09-25T10:07:58.816Z,65.00
2018-09-25T10:10:33.999Z,67.20
2018-09-25T10:13:08.963Z,67.30
2018-09-25T10:15:44.119Z,64.20
2018-09-25T10:18:19.147Z,66.10
2018-09-25T10:20:54.112Z,62.40
2018-09-25T10:23:29.206Z,64.10
2018-09-25T10:26:04.246Z,65.80
2018-09-25T10:28:39.298Z,64.90
2018-09-25T10:31:14.270Z,64.50
2018-09-25T10:33:49.461Z,65.70
2018-09-25T10:36:25.143Z,65.90
2018-09-25T10:39:00.214Z,66.70
2018-09-25T10:41:35.195Z,64.00
2018-09-25T10:44:10.320Z,63.30
2018-09-25T10:46:45.242Z,61.20
2018-09-25T10:49:20.353Z,63.80
2018-09-25T10:51:55.413Z,65.00
2018-09-25T10:54:30.519Z,62.20
2018-09-25T10:57:05.476Z,62.70
2018-09-25T10:59:40.611Z,64.50
2018-09-25T11:02:15.736Z,61.60
2018-09-25T11:04:50.883Z,63.80
2018-09-25T11:07:25.893Z,64.40
2018-09-25T11:10:00.971Z,64.10
2018-09-25T11:12:36.319Z,65.10
2018-09-25T11:15:11.667Z,63.60
2018-09-25T11:17:46.556Z,64.80
2018-09-25T11:20:21.611Z,62.70
2018-09-25T11:22:56.680Z,62.70
2018-09-25T11:25:31.695Z,63.00
2018-09-25T11:28:07.108Z,63.50
2018-09-25T11:30:42.149Z,61.70
2018-09-25T11:33:17.425Z,61.70
2018-09-25T11:35:52.435Z,63.00
2018-09-25T11:38:27.507Z,64.10
2018-09-25T11:41:02.580Z,63.70
2018-09-25T11:43:37.615Z,63.10
2018-09-25T11:46:12.609Z,63.20
2018-09-25T11:48:47.599Z,65.00
2018-09-25T11:51:22.648Z,64.40
2018-09-25T11:53:57.588Z,63.80
2018-09-25T11:56:32.544Z,62.80
2018-09-25T11:59:07.544Z,61.50
2018-09-25T12:01:42.451Z,61.80
2018-09-25T12:04:17.401Z,60.70
2018-09-25T12:06:52.809Z,62.40
2018-09-25T12:09:28.356Z,62.70
2018-09-25T12:12:03.415Z,64.90
2018-09-25T12:14:38.855Z,63.90
2018-09-25T12:17:14.050Z,62.20
2018-09-25T12:19:49.320Z,60.50
2018-09-25T12:22:24.335Z,61.30
2018-09-25T12:24:59.320Z,59.80
2018-09-25T12:27:34.414Z,60.50
2018-09-25T12:30:10.367Z,61.10
2018-09-25T12:32:45.473Z,59.40
2018-09-25T12:35:21.167Z,58.00
2018-09-25T12:37:56.469Z,57.80
2018-09-25T12:40:31.675Z,59.00
2018-09-25T12:43:06.766Z,59.00
2018-09-25T12:45:41.967Z,58.50
2018-09-25T12:48:17.071Z,57.40
2018-09-25T12:50:52.235Z,58.20
2018-09-25T12:53:27.814Z,59.40
2018-09-25T12:56:03.012Z,59.60
2018-09-25T12:58:37.995Z,61.80
2018-09-25T13:01:13.107Z,60.90
2018-09-25T13:03:48.456Z,59.30
2018-09-25T13:06:23.635Z,58.40
2018-09-25T13:08:58.375Z,58.70
2018-09-25T13:11:33.559Z,58.60
2018-09-25T13:14:10.849Z,58.00
2018-09-25T13:16:46.057Z,57.80
2018-09-25T13:19:21.387Z,57.30
2018-09-25T13:21:56.764Z,57.80
2018-09-25T13:24:32.092Z,58.30
2018-09-25T13:27:07.354Z,58.90
2018-09-25T13:29:42.323Z,57.70
2018-09-25T13:32:17.447Z,55.70
2018-09-25T13:34:52.407Z,57.00
2018-09-25T13:37:27.402Z,57.30
2018-09-25T13:40:02.987Z,57.60
2018-09-25T13:42:38.381Z,56.90
2018-09-25T13:45:16.826Z,57.10
2018-09-25T13:47:52.986Z,56.30
2018-09-25T13:50:28.364Z,57.10
2018-09-25T13:53:03.486Z,56.20
2018-09-25T13:55:38.639Z,56.20
2018-09-25T13:58:13.642Z,55.50
2018-09-25T14:00:48.778Z,55.00
2018-09-25T14:03:23.845Z,55.00
2018-09-25T14:05:58.968Z,53.80
2018-09-25T14:08:34.035Z,54.30
2018-09-25T14:11:09.147Z,54.00
2018-09-25T14:13:44.114Z,54.70
2018-09-25T14:16:19.223Z,53.20
2018-09-25T14:18:54.062Z,53.70
2018-09-25T14:21:29.047Z,53.40
2018-09-25T14:24:04.060Z,53.70
2018-09-25T14:26:39.007Z,52.90
2018-09-25T14:29:14.144Z,54.00
2018-09-25T14:31:49.086Z,53.30
2018-09-25T14:34:24.175Z,52.90
2018-09-25T14:36:59.146Z,53.50
2018-09-25T14:39:35.313Z,52.90
2018-09-25T14:42:10.156Z,53.10
2018-09-25T14:44:45.180Z,52.20
2018-09-25T14:47:20.147Z,50.90
2018-09-25T14:49:55.253Z,51.80
2018-09-25T14:52:30.375Z,50.50
2018-09-25T14:55:05.363Z,51.20
2018-09-25T14:57:40.411Z,51.70
2018-09-25T15:00:15.279Z,50.60
2018-09-25T15:02:50.219Z,52.00
2018-09-25T15:05:25.282Z,51.50
2018-09-25T15:08:00.192Z,52.90
2018-09-25T15:10:35.181Z,52.40
2018-09-25T15:13:11.287Z,51.70
2018-09-25T15:15:46.387Z,52.80
2018-09-25T15:18:21.424Z,51.80
2018-09-25T15:20:56.412Z,53.00
2018-09-25T15:23:31.760Z,53.00
2018-09-25T15:26:06.941Z,53.00
2018-09-25T15:28:42.021Z,52.40
2018-09-25T15:31:17.076Z,52.40
2018-09-25T15:33:51.919Z,52.80
2018-09-25T15:36:27.007Z,52.30
2018-09-25T15:39:01.927Z,51.80
2018-09-25T15:41:37.511Z,52.10
2018-09-25T15:44:12.846Z,53.40
2018-09-25T15:46:47.875Z,52.20
2018-09-25T15:49:22.829Z,52.30
2018-09-25T15:51:58.320Z,53.10
2018-09-25T15:54:33.399Z,52.40
2018-09-25T15:57:08.764Z,52.50
2018-09-25T15:59:43.671Z,52.80
2018-09-25T16:02:18.670Z,52.50
2018-09-25T16:04:53.575Z,53.70
2018-09-25T16:07:28.670Z,54.20
2018-09-25T16:10:03.855Z,54.60
2018-09-25T16:12:38.875Z,52.40
2018-09-25T16:15:13.871Z,52.60
2018-09-25T16:17:48.731Z,52.70
2018-09-25T16:20:23.776Z,53.20
2018-09-25T16:22:58.788Z,53.50
2018-09-25T16:25:33.615Z,53.10
2018-09-25T16:28:08.594Z,54.40
2018-09-25T16:30:43.745Z,54.40
2018-09-25T16:33:18.808Z,55.10
2018-09-25T16:35:54.227Z,54.60
2018-09-25T16:38:29.393Z,55.10
2018-09-25T16:41:04.711Z,55.80
2018-09-25T16:43:39.687Z,56.00
2018-09-25T16:46:14.924Z,56.00
2018-09-25T16:48:49.993Z,56.00
2018-09-25T16:51:24.963Z,56.80
2018-09-25T16:54:00.019Z,57.50
2018-09-25T16:56:35.148Z,57.30
2018-09-25T16:59:10.159Z,58.60
2018-09-25T17:01:45.215Z,58.20
2018-09-25T17:04:20.196Z,57.80
2018-09-25T17:06:55.692Z,57.90
2018-09-25T17:09:30.796Z,58.30
2018-09-25T17:12:05.863Z,58.60
2018-09-25T17:14:41.732Z,59.00
2018-09-25T17:17:17.726Z,60.20
2018-09-25T17:19:52.687Z,60.80
2018-09-25T17:22:27.725Z,60.50
2018-09-25T17:25:02.799Z,61.50
2018-09-25T17:27:37.891Z,63.40
2018-09-25T17:30:13.317Z,63.80
2018-09-25T17:32:48.323Z,63.30
2018-09-25T17:35:23.166Z,63.70
2018-09-25T17:37:58.003Z,63.60
2018-09-25T17:40:33.400Z,63.60
2018-09-25T17:43:08.797Z,63.90
2018-09-25T17:45:43.940Z,63.90
2018-09-25T17:48:18.932Z,65.60
2018-09-25T17:50:53.967Z,63.20
2018-09-25T17:53:28.991Z,63.30
2018-09-25T17:56:04.031Z,63.90
2018-09-25T17:58:39.338Z,64.70
2018-09-25T18:01:14.477Z,65.80
2018-09-25T18:03:50.030Z,65.00
2018-09-25T18:06:25.171Z,65.50
2018-09-25T18:09:00.611Z,64.90
2018-09-25T18:11:35.983Z,64.70
2018-09-25T18:14:11.668Z,64.90
2018-09-25T18:16:46.776Z,65.70
2018-09-25T18:19:21.987Z,65.10
2018-09-25T18:21:57.292Z,64.90
2018-09-25T18:24:32.564Z,65.70
2018-09-25T18:27:08.043Z,66.40
2018-09-25T18:29:43.247Z,67.40
2018-09-25T18:32:18.627Z,68.50
2018-09-25T18:34:53.664Z,68.50
2018-09-25T18:37:29.060Z,69.90
2018-09-25T18:40:04.697Z,69.50
2018-09-25T18:42:40.791Z,71.00
2018-09-25T18:45:16.676Z,70.50
2018-09-25T18:47:51.703Z,70.80
2018-09-25T18:50:26.805Z,70.70
2018-09-25T18:53:02.448Z,69.90
2018-09-25T18:55:37.821Z,70.70
2018-09-25T18:58:13.482Z,71.10
2018-09-25T19:00:48.519Z,71.20
2018-09-25T19:03:23.524Z,71.30
2018-09-25T19:05:58.759Z,71.70
2018-09-25T19:08:33.904Z,71.40
2018-09-25T19:11:09.039Z,72.40
2018-09-25T19:13:44.152Z,71.90
2018-09-25T19:16:19.402Z,72.90
2018-09-25T19:18:54.400Z,73.10
2018-09-25T19:21:29.777Z,72.70
2018-09-25T19:24:05.489Z,72.90
2018-09-25T19:26:46.294Z,73.40
2018-09-25T19:29:21.427Z,74.00
2018-09-25T19:31:56.776Z,73.60
2018-09-25T19:34:31.703Z,73.50
2018-09-25T19:37:07.443Z,73.80
2018-09-25T19:39:42.803Z,75.10
2018-09-25T19:42:17.824Z,74.40
2018-09-25T19:44:53.705Z,75.10
2018-09-25T19:47:28.631Z,75.20
2018-09-25T19:50:03.861Z,74.60
2018-09-25T19:52:38.999Z,74.70
2018-09-25T19:55:14.163Z,74.90
2018-09-25T19:57:57.446Z,74.90
2018-09-25T20:00:32.811Z,74.90
2018-09-25T20:03:07.883Z,75.10
2018-09-25T20:05:42.847Z,75.60
2018-09-25T20:08:17.751Z,76.10
2018-09-25T20:10:52.766Z,76.60
2018-09-25T20:13:27.933Z,76.60
2018-09-25T20:16:03.322Z,77.40
2018-09-25T20:18:38.663Z,77.50
2018-09-25T20:21:13.775Z,76.90
2018-09-25T20:23:48.843Z,76.70
2018-09-25T20:26:23.883Z,77.70
2018-09-25T20:28:59.255Z,76.90
2018-09-25T20:31:34.470Z,76.60
2018-09-25T20:34:09.488Z,76.30
2018-09-25T20:36:44.647Z,76.30
2018-09-25T20:39:19.911Z,76.50
2018-09-25T20:41:55.104Z,76.90
2018-09-25T20:44:30.195Z,77.70
2018-09-25T20:47:05.382Z,78.00
2018-09-25T20:49:41.063Z,77.10
2018-09-25T20:52:16.601Z,77.40
2018-09-25T20:54:51.631Z,77.20
2018-09-25T20:57:27.083Z,77.30
2018-09-25T21:00:02.177Z,77.20
2018-09-25T21:02:37.663Z,77.30
2018-09-25T21:05:12.883Z,79.10
2018-09-25T21:07:48.171Z,77.80
2018-09-25T21:10:23.255Z,77.40
2018-09-25T21:12:58.496Z,75.80
2018-09-25T21:15:33.701Z,76.20
2018-09-25T21:18:09.450Z,76.30
2018-09-25T21:20:44.455Z,75.60
2018-09-25T21:23:19.428Z,76.90
2018-09-25T21:25:54.800Z,75.60
2018-09-25T21:28:29.901Z,77.10
2018-09-25T21:31:05.228Z,76.40
2018-09-25T21:33:40.497Z,75.60
2018-09-25T21:36:15.395Z,75.70
2018-09-25T21:38:50.548Z,75.80
2018-09-25T21:41:25.759Z,76.40
2018-09-25T21:44:00.862Z,75.90
2018-09-25T21:46:36.026Z,75.70
2018-09-25T21:49:11.046Z,75.80
2018-09-25T21:51:46.384Z,77.20
2018-09-25T21:54:21.607Z,75.70
2018-09-25T21:56:56.731Z,76.30
2018-09-25T21:59:31.964Z,76.30
2018-09-25T22:02:06.869Z,75.40
2018-09-25T22:04:42.028Z,74.00
2018-09-25T22:07:17.187Z,75.10
2018-09-25T22:09:52.066Z,73.70
2018-09-25T22:12:27.118Z,73.50
2018-09-25T22:15:02.087Z,71.70
2018-09-25T22:17:37.307Z,73.40
2018-09-25T22:20:12.698Z,71.80
2018-09-25T22:22:47.584Z,72.50
2018-09-25T22:25:22.487Z,72.20
2018-09-25T22:27:57.643Z,72.30
2018-09-25T22:30:32.662Z,73.00
2018-09-25T22:33:08.010Z,72.70
2018-09-25T22:35:43.081Z,72.10
2018-09-25T22:38:18.213Z,71.70
2018-09-25T22:40:53.359Z,71.90
2018-09-25T22:43:28.476Z,71.60
2018-09-25T22:46:03.706Z,72.00
2018-09-25T22:48:38.707Z,71.80
2018-09-25T22:51:13.654Z,72.20
2018-09-25T22:53:48.683Z,71.60
2018-09-25T22:56:23.755Z,71.00
2018-09-25T22:58:58.834Z,71.80
2018-09-25T23:01:34.150Z,71.60
2018-09-25T23:04:09.084Z,71.80
2018-09-25T23:06:44.182Z,71.60
2018-09-25T23:09:19.338Z,71.90
2018-09-25T23:11:54.319Z,71.30
2018-09-25T23:14:29.225Z,71.50
2018-09-25T23:17:04.179Z,72.60
2018-09-25T23:19:39.307Z,70.80
2018-09-25T23:22:14.392Z,70.00
2018-09-25T23:24:49.518Z,70.70
2018-09-25T23:27:24.519Z,71.30
2018-09-25T23:29:59.507Z,70.90
2018-09-25T23:32:34.543Z,71.60
2018-09-25T23:35:09.544Z,70.90
2018-09-25T23:37:44.588Z,71.00
2018-09-25T23:41:20.248Z,72.10
2018-09-25T23:44:07.096Z,70.60
2018-09-25T23:47:45.732Z,70.90
2018-09-25T23:50:20.728Z,71.00
2018-09-25T23:52:55.871Z,71.40
2018-09-25T23:55:30.681Z,70.70
2018-09-25T23:58:05.702Z,70.80
